sensor_id;sensor_type;location;lat;lon;timestamp;P1;durP1;ratioP1;P2;durP2;ratioP2
55987;SDS011;67216;50.930;4.514;2023-02-10T00:01:14;60.80;;;38.25;;
55987;SDS011;67216;50.930;4.514;2023-02-10T00:03:40;61.80;;;39.35;;
55987;SDS011;67216;50.930;4.514;2023-02-10T00:06:07;66.78;;;39.28;;
55987;SDS011;67216;50.930;4.514;2023-02-10T00:08:33;59.60;;;37.60;;
55987;SDS011;67216;50.930;4.514;2023-02-10T00:11:01;56.75;;;37.55;;
55987;SDS011;67216;50.930;4.514;2023-02-10T00:13:29;56.00;;;34.78;;
55987;SDS011;67216;50.930;4.514;2023-02-10T00:15:58;57.85;;;36.72;;
55987;SDS011;67216;50.930;4.514;2023-02-10T00:18:25;59.95;;;36.13;;
55987;SDS011;67216;50.930;4.514;2023-02-10T00:20:52;58.38;;;37.13;;
55987;SDS011;67216;50.930;4.514;2023-02-10T00:23:18;57.03;;;37.65;;
55987;SDS011;67216;50.930;4.514;2023-02-10T00:25:44;60.83;;;36.55;;
55987;SDS011;67216;50.930;4.514;2023-02-10T00:28:11;57.83;;;37.05;;
55987;SDS011;67216;50.930;4.514;2023-02-10T00:30:39;56.33;;;36.58;;
55987;SDS011;67216;50.930;4.514;2023-02-10T00:33:05;63.38;;;38.38;;
55987;SDS011;67216;50.930;4.514;2023-02-10T00:35:31;61.78;;;37.28;;
55987;SDS011;67216;50.930;4.514;2023-02-10T00:37:57;57.90;;;37.22;;
55987;SDS011;67216;50.930;4.514;2023-02-10T00:40:22;58.42;;;37.53;;
55987;SDS011;67216;50.930;4.514;2023-02-10T00:42:48;60.10;;;37.65;;
55987;SDS011;67216;50.930;4.514;2023-02-10T00:45:14;62.45;;;38.30;;
55987;SDS011;67216;50.930;4.514;2023-02-10T00:47:40;64.57;;;37.60;;
55987;SDS011;67216;50.930;4.514;2023-02-10T00:50:06;62.03;;;37.95;;
55987;SDS011;67216;50.930;4.514;2023-02-10T00:52:32;59.28;;;37.00;;
55987;SDS011;67216;50.930;4.514;2023-02-10T00:54:58;65.70;;;37.55;;
55987;SDS011;67216;50.930;4.514;2023-02-10T00:57:26;60.17;;;37.83;;
55987;SDS011;67216;50.930;4.514;2023-02-10T00:59:52;58.13;;;37.30;;
55987;SDS011;67216;50.930;4.514;2023-02-10T01:02:20;57.78;;;38.00;;
55987;SDS011;67216;50.930;4.514;2023-02-10T01:04:46;64.28;;;37.20;;
55987;SDS011;67216;50.930;4.514;2023-02-10T01:07:12;60.95;;;36.88;;
55987;SDS011;67216;50.930;4.514;2023-02-10T01:09:38;60.63;;;37.70;;
55987;SDS011;67216;50.930;4.514;2023-02-10T01:12:04;60.28;;;37.00;;
55987;SDS011;67216;50.930;4.514;2023-02-10T01:14:31;65.43;;;37.42;;
55987;SDS011;67216;50.930;4.514;2023-02-10T01:16:58;61.97;;;36.53;;
55987;SDS011;67216;50.930;4.514;2023-02-10T01:19:24;64.78;;;39.35;;
55987;SDS011;67216;50.930;4.514;2023-02-10T01:21:49;66.53;;;37.33;;
55987;SDS011;67216;50.930;4.514;2023-02-10T01:24:16;59.08;;;38.55;;
55987;SDS011;67216;50.930;4.514;2023-02-10T01:26:43;62.05;;;37.95;;
55987;SDS011;67216;50.930;4.514;2023-02-10T01:29:09;64.20;;;40.15;;
55987;SDS011;67216;50.930;4.514;2023-02-10T01:31:37;67.28;;;38.58;;
55987;SDS011;67216;50.930;4.514;2023-02-10T01:34:05;63.10;;;38.75;;
55987;SDS011;67216;50.930;4.514;2023-02-10T01:36:31;61.25;;;39.33;;
55987;SDS011;67216;50.930;4.514;2023-02-10T01:38:57;75.32;;;39.03;;
55987;SDS011;67216;50.930;4.514;2023-02-10T01:41:26;63.53;;;40.17;;
55987;SDS011;67216;50.930;4.514;2023-02-10T01:46:22;64.18;;;39.20;;
55987;SDS011;67216;50.930;4.514;2023-02-10T01:48:48;65.95;;;39.70;;
55987;SDS011;67216;50.930;4.514;2023-02-10T01:51:14;66.65;;;40.25;;
55987;SDS011;67216;50.930;4.514;2023-02-10T01:53:43;65.80;;;41.22;;
55987;SDS011;67216;50.930;4.514;2023-02-10T01:56:09;69.93;;;42.15;;
55987;SDS011;67216;50.930;4.514;2023-02-10T01:58:37;67.50;;;41.80;;
55987;SDS011;67216;50.930;4.514;2023-02-10T02:01:06;66.30;;;39.87;;
55987;SDS011;67216;50.930;4.514;2023-02-10T02:03:32;66.50;;;40.30;;
55987;SDS011;67216;50.930;4.514;2023-02-10T02:06:06;63.22;;;40.78;;
55987;SDS011;67216;50.930;4.514;2023-02-10T02:08:32;63.63;;;40.08;;
55987;SDS011;67216;50.930;4.514;2023-02-10T02:11:00;67.13;;;41.15;;
55987;SDS011;67216;50.930;4.514;2023-02-10T02:22:44;65.93;;;41.13;;
55987;SDS011;67216;50.930;4.514;2023-02-10T02:34:01;69.05;;;41.33;;
55987;SDS011;67216;50.930;4.514;2023-02-10T02:39:31;69.50;;;41.00;;
55987;SDS011;67216;50.930;4.514;2023-02-10T02:44:40;73.35;;;41.17;;
55987;SDS011;67216;50.930;4.514;2023-02-10T02:47:19;71.38;;;42.22;;
55987;SDS011;67216;50.930;4.514;2023-02-10T02:55:49;79.20;;;45.80;;
55987;SDS011;67216;50.930;4.514;2023-02-10T02:58:59;78.70;;;44.40;;
55987;SDS011;67216;50.930;4.514;2023-02-10T03:01:25;84.05;;;46.85;;
55987;SDS011;67216;50.930;4.514;2023-02-10T03:04:07;83.93;;;45.47;;
55987;SDS011;67216;50.930;4.514;2023-02-10T03:06:36;86.35;;;46.72;;
55987;SDS011;67216;50.930;4.514;2023-02-10T03:09:01;83.95;;;45.90;;
55987;SDS011;67216;50.930;4.514;2023-02-10T03:11:30;88.10;;;46.90;;
55987;SDS011;67216;50.930;4.514;2023-02-10T03:13:56;86.95;;;46.40;;
55987;SDS011;67216;50.930;4.514;2023-02-10T03:16:21;85.30;;;45.72;;
55987;SDS011;67216;50.930;4.514;2023-02-10T03:18:51;88.13;;;47.97;;
55987;SDS011;67216;50.930;4.514;2023-02-10T03:21:20;88.78;;;46.08;;
55987;SDS011;67216;50.930;4.514;2023-02-10T03:23:45;93.85;;;48.25;;
55987;SDS011;67216;50.930;4.514;2023-02-10T03:26:12;96.38;;;51.72;;
55987;SDS011;67216;50.930;4.514;2023-02-10T03:28:38;92.10;;;48.90;;
55987;SDS011;67216;50.930;4.514;2023-02-10T03:31:07;103.97;;;51.53;;
55987;SDS011;67216;50.930;4.514;2023-02-10T03:33:34;91.18;;;49.35;;
55987;SDS011;67216;50.930;4.514;2023-02-10T03:36:02;88.75;;;46.78;;
55987;SDS011;67216;50.930;4.514;2023-02-10T03:38:29;97.20;;;49.17;;
55987;SDS011;67216;50.930;4.514;2023-02-10T03:40:55;93.07;;;48.42;;
55987;SDS011;67216;50.930;4.514;2023-02-10T03:43:23;113.13;;;51.88;;
55987;SDS011;67216;50.930;4.514;2023-02-10T03:45:52;105.35;;;50.83;;
55987;SDS011;67216;50.930;4.514;2023-02-10T03:48:20;97.32;;;49.15;;
55987;SDS011;67216;50.930;4.514;2023-02-10T03:50:47;102.93;;;50.15;;
55987;SDS011;67216;50.930;4.514;2023-02-10T03:53:13;99.80;;;48.67;;
55987;SDS011;67216;50.930;4.514;2023-02-10T03:55:39;100.63;;;50.58;;
55987;SDS011;67216;50.930;4.514;2023-02-10T03:58:05;108.65;;;51.15;;
55987;SDS011;67216;50.930;4.514;2023-02-10T04:00:31;119.10;;;51.83;;
55987;SDS011;67216;50.930;4.514;2023-02-10T04:02:56;119.55;;;53.80;;
55987;SDS011;67216;50.930;4.514;2023-02-10T04:05:22;117.32;;;53.38;;
55987;SDS011;67216;50.930;4.514;2023-02-10T04:07:48;106.35;;;50.85;;
55987;SDS011;67216;50.930;4.514;2023-02-10T04:10:17;118.07;;;53.92;;
55987;SDS011;67216;50.930;4.514;2023-02-10T04:12:42;119.45;;;52.92;;
55987;SDS011;67216;50.930;4.514;2023-02-10T04:15:08;128.02;;;53.53;;
55987;SDS011;67216;50.930;4.514;2023-02-10T04:17:36;119.78;;;51.03;;
55987;SDS011;67216;50.930;4.514;2023-02-10T04:20:04;112.05;;;52.50;;
55987;SDS011;67216;50.930;4.514;2023-02-10T04:22:31;115.22;;;51.85;;
55987;SDS011;67216;50.930;4.514;2023-02-10T04:24:56;109.65;;;49.83;;
55987;SDS011;67216;50.930;4.514;2023-02-10T04:27:22;117.90;;;51.47;;
55987;SDS011;67216;50.930;4.514;2023-02-10T04:29:50;111.72;;;49.08;;
55987;SDS011;67216;50.930;4.514;2023-02-10T04:32:16;108.88;;;50.05;;
55987;SDS011;67216;50.930;4.514;2023-02-10T04:34:42;105.93;;;46.15;;
55987;SDS011;67216;50.930;4.514;2023-02-10T04:37:08;106.45;;;47.13;;
55987;SDS011;67216;50.930;4.514;2023-02-10T04:39:38;111.70;;;47.83;;
55987;SDS011;67216;50.930;4.514;2023-02-10T04:42:07;105.30;;;46.90;;
55987;SDS011;67216;50.930;4.514;2023-02-10T04:44:33;104.00;;;47.72;;
55987;SDS011;67216;50.930;4.514;2023-02-10T04:46:59;112.65;;;48.90;;
55987;SDS011;67216;50.930;4.514;2023-02-10T04:49:26;118.35;;;50.17;;
55987;SDS011;67216;50.930;4.514;2023-02-10T04:51:52;146.88;;;54.55;;
55987;SDS011;67216;50.930;4.514;2023-02-10T04:54:18;132.60;;;54.15;;
55987;SDS011;67216;50.930;4.514;2023-02-10T04:56:45;166.88;;;57.85;;
55987;SDS011;67216;50.930;4.514;2023-02-10T04:59:12;164.02;;;59.58;;
55987;SDS011;67216;50.930;4.514;2023-02-10T05:01:37;155.75;;;59.45;;
55987;SDS011;67216;50.930;4.514;2023-02-10T05:04:03;167.70;;;60.35;;
55987;SDS011;67216;50.930;4.514;2023-02-10T05:06:29;162.82;;;61.60;;
55987;SDS011;67216;50.930;4.514;2023-02-10T05:08:57;151.30;;;57.25;;
55987;SDS011;67216;50.930;4.514;2023-02-10T05:11:26;170.35;;;62.70;;
55987;SDS011;67216;50.930;4.514;2023-02-10T05:13:52;127.23;;;45.23;;
55987;SDS011;67216;50.930;4.514;2023-02-10T05:16:18;171.55;;;62.78;;
55987;SDS011;67216;50.930;4.514;2023-02-10T05:18:44;139.70;;;55.75;;
55987;SDS011;67216;50.930;4.514;2023-02-10T05:21:12;129.15;;;56.25;;
55987;SDS011;67216;50.930;4.514;2023-02-10T05:23:41;147.93;;;58.70;;
55987;SDS011;67216;50.930;4.514;2023-02-10T05:26:08;168.90;;;63.38;;
55987;SDS011;67216;50.930;4.514;2023-02-10T05:28:36;183.65;;;68.70;;
55987;SDS011;67216;50.930;4.514;2023-02-10T05:31:04;202.23;;;72.13;;
55987;SDS011;67216;50.930;4.514;2023-02-10T05:33:33;185.07;;;70.45;;
55987;SDS011;67216;50.930;4.514;2023-02-10T05:36:00;178.85;;;70.75;;
55987;SDS011;67216;50.930;4.514;2023-02-10T05:38:26;190.60;;;71.40;;
55987;SDS011;67216;50.930;4.514;2023-02-10T05:40:52;211.35;;;77.45;;
55987;SDS011;67216;50.930;4.514;2023-02-10T05:43:18;190.23;;;75.90;;
55987;SDS011;67216;50.930;4.514;2023-02-10T05:45:47;197.70;;;76.07;;
55987;SDS011;67216;50.930;4.514;2023-02-10T05:48:13;208.57;;;81.80;;
55987;SDS011;67216;50.930;4.514;2023-02-10T05:50:39;196.85;;;78.25;;
55987;SDS011;67216;50.930;4.514;2023-02-10T05:53:06;199.55;;;79.00;;
55987;SDS011;67216;50.930;4.514;2023-02-10T05:55:32;189.68;;;80.32;;
55987;SDS011;67216;50.930;4.514;2023-02-10T05:58:00;183.95;;;76.68;;
55987;SDS011;67216;50.930;4.514;2023-02-10T06:00:30;189.48;;;79.40;;
55987;SDS011;67216;50.930;4.514;2023-02-10T06:02:56;189.70;;;78.93;;
55987;SDS011;67216;50.930;4.514;2023-02-10T06:05:22;185.30;;;78.65;;
55987;SDS011;67216;50.930;4.514;2023-02-10T06:07:50;186.70;;;83.30;;
55987;SDS011;67216;50.930;4.514;2023-02-10T06:10:16;180.63;;;80.72;;
55987;SDS011;67216;50.930;4.514;2023-02-10T06:12:43;175.70;;;79.60;;
55987;SDS011;67216;50.930;4.514;2023-02-10T06:15:09;182.77;;;80.80;;
55987;SDS011;67216;50.930;4.514;2023-02-10T06:17:37;177.02;;;80.18;;
55987;SDS011;67216;50.930;4.514;2023-02-10T06:20:03;182.70;;;81.85;;
55987;SDS011;67216;50.930;4.514;2023-02-10T06:22:32;173.15;;;82.47;;
55987;SDS011;67216;50.930;4.514;2023-02-10T06:25:02;185.20;;;83.80;;
55987;SDS011;67216;50.930;4.514;2023-02-10T06:27:29;185.00;;;83.60;;
55987;SDS011;67216;50.930;4.514;2023-02-10T06:29:55;166.02;;;80.78;;
55987;SDS011;67216;50.930;4.514;2023-02-10T06:32:22;171.40;;;81.07;;
55987;SDS011;67216;50.930;4.514;2023-02-10T06:34:49;165.15;;;74.75;;
55987;SDS011;67216;50.930;4.514;2023-02-10T06:37:17;163.37;;;75.77;;
55987;SDS011;67216;50.930;4.514;2023-02-10T06:39:46;155.88;;;78.05;;
55987;SDS011;67216;50.930;4.514;2023-02-10T06:42:12;151.35;;;72.28;;
55987;SDS011;67216;50.930;4.514;2023-02-10T06:44:38;159.38;;;75.75;;
55987;SDS011;67216;50.930;4.514;2023-02-10T06:47:04;169.30;;;81.90;;
55987;SDS011;67216;50.930;4.514;2023-02-10T06:49:32;169.07;;;83.28;;
55987;SDS011;67216;50.930;4.514;2023-02-10T06:52:01;171.60;;;81.22;;
55987;SDS011;67216;50.930;4.514;2023-02-10T06:54:28;173.98;;;81.07;;
55987;SDS011;67216;50.930;4.514;2023-02-10T06:56:58;190.25;;;82.32;;
55987;SDS011;67216;50.930;4.514;2023-02-10T06:59:26;169.48;;;82.47;;
55987;SDS011;67216;50.930;4.514;2023-02-10T07:01:54;161.93;;;79.68;;
55987;SDS011;67216;50.930;4.514;2023-02-10T07:04:25;165.35;;;77.20;;
55987;SDS011;67216;50.930;4.514;2023-02-10T07:06:55;157.02;;;77.45;;
55987;SDS011;67216;50.930;4.514;2023-02-10T07:09:24;142.63;;;71.75;;
55987;SDS011;67216;50.930;4.514;2023-02-10T07:11:49;171.30;;;76.70;;
55987;SDS011;67216;50.930;4.514;2023-02-10T07:14:18;168.75;;;77.00;;
55987;SDS011;67216;50.930;4.514;2023-02-10T07:16:46;160.90;;;72.80;;
55987;SDS011;67216;50.930;4.514;2023-02-10T07:19:12;157.48;;;74.20;;
55987;SDS011;67216;50.930;4.514;2023-02-10T07:21:38;162.70;;;74.22;;
55987;SDS011;67216;50.930;4.514;2023-02-10T07:24:04;151.88;;;75.05;;
55987;SDS011;67216;50.930;4.514;2023-02-10T07:26:33;169.32;;;80.85;;
55987;SDS011;67216;50.930;4.514;2023-02-10T07:29:01;143.52;;;71.25;;
55987;SDS011;67216;50.930;4.514;2023-02-10T07:31:27;152.23;;;70.53;;
55987;SDS011;67216;50.930;4.514;2023-02-10T07:33:55;156.23;;;72.60;;
55987;SDS011;67216;50.930;4.514;2023-02-10T07:36:24;141.43;;;70.95;;
55987;SDS011;67216;50.930;4.514;2023-02-10T07:38:50;120.60;;;62.90;;
55987;SDS011;67216;50.930;4.514;2023-02-10T07:41:15;111.75;;;57.53;;
55987;SDS011;67216;50.930;4.514;2023-02-10T07:43:41;106.10;;;55.95;;
55987;SDS011;67216;50.930;4.514;2023-02-10T07:46:07;97.22;;;52.35;;
55987;SDS011;67216;50.930;4.514;2023-02-10T07:48:35;104.53;;;53.00;;
55987;SDS011;67216;50.930;4.514;2023-02-10T07:51:00;95.05;;;50.67;;
55987;SDS011;67216;50.930;4.514;2023-02-10T07:53:27;98.25;;;52.80;;
55987;SDS011;67216;50.930;4.514;2023-02-10T07:55:57;96.32;;;51.90;;
55987;SDS011;67216;50.930;4.514;2023-02-10T07:58:24;104.65;;;53.42;;
55987;SDS011;67216;50.930;4.514;2023-02-10T08:00:49;101.88;;;51.70;;
55987;SDS011;67216;50.930;4.514;2023-02-10T08:03:16;98.50;;;54.97;;
55987;SDS011;67216;50.930;4.514;2023-02-10T08:05:44;95.55;;;53.97;;
55987;SDS011;67216;50.930;4.514;2023-02-10T08:08:12;89.85;;;51.60;;
55987;SDS011;67216;50.930;4.514;2023-02-10T08:10:38;84.47;;;49.83;;
55987;SDS011;67216;50.930;4.514;2023-02-10T08:13:04;81.93;;;47.38;;
55987;SDS011;67216;50.930;4.514;2023-02-10T08:15:31;79.50;;;47.33;;
55987;SDS011;67216;50.930;4.514;2023-02-10T08:18:00;81.45;;;47.80;;
55987;SDS011;67216;50.930;4.514;2023-02-10T08:20:26;87.40;;;49.15;;
55987;SDS011;67216;50.930;4.514;2023-02-10T08:22:55;91.72;;;51.75;;
55987;SDS011;67216;50.930;4.514;2023-02-10T08:25:22;88.20;;;52.45;;
55987;SDS011;67216;50.930;4.514;2023-02-10T08:27:49;87.47;;;50.78;;
55987;SDS011;67216;50.930;4.514;2023-02-10T08:30:15;95.45;;;49.20;;
55987;SDS011;67216;50.930;4.514;2023-02-10T08:32:43;85.73;;;47.70;;
55987;SDS011;67216;50.930;4.514;2023-02-10T08:35:11;77.20;;;45.80;;
55987;SDS011;67216;50.930;4.514;2023-02-10T08:37:39;73.30;;;45.20;;
55987;SDS011;67216;50.930;4.514;2023-02-10T08:40:08;77.10;;;46.55;;
55987;SDS011;67216;50.930;4.514;2023-02-10T08:42:34;75.03;;;44.58;;
55987;SDS011;67216;50.930;4.514;2023-02-10T08:45:00;74.20;;;42.67;;
55987;SDS011;67216;50.930;4.514;2023-02-10T08:47:26;73.13;;;44.28;;
55987;SDS011;67216;50.930;4.514;2023-02-10T08:49:52;72.18;;;45.30;;
55987;SDS011;67216;50.930;4.514;2023-02-10T08:52:17;79.70;;;45.55;;
55987;SDS011;67216;50.930;4.514;2023-02-10T08:54:45;74.78;;;45.22;;
55987;SDS011;67216;50.930;4.514;2023-02-10T08:57:11;80.40;;;47.30;;
55987;SDS011;67216;50.930;4.514;2023-02-10T08:59:37;77.63;;;47.90;;
55987;SDS011;67216;50.930;4.514;2023-02-10T09:02:02;69.30;;;45.35;;
55987;SDS011;67216;50.930;4.514;2023-02-10T09:04:31;71.50;;;45.08;;
55987;SDS011;67216;50.930;4.514;2023-02-10T09:06:57;81.25;;;48.05;;
55987;SDS011;67216;50.930;4.514;2023-02-10T09:09:25;71.40;;;45.58;;
55987;SDS011;67216;50.930;4.514;2023-02-10T09:11:53;68.50;;;45.80;;
55987;SDS011;67216;50.930;4.514;2023-02-10T09:14:23;67.63;;;43.40;;
55987;SDS011;67216;50.930;4.514;2023-02-10T09:16:48;69.18;;;44.10;;
55987;SDS011;67216;50.930;4.514;2023-02-10T09:19:16;69.43;;;44.45;;
55987;SDS011;67216;50.930;4.514;2023-02-10T09:21:42;70.93;;;41.90;;
55987;SDS011;67216;50.930;4.514;2023-02-10T09:24:08;71.50;;;45.50;;
55987;SDS011;67216;50.930;4.514;2023-02-10T09:26:34;69.05;;;44.58;;
55987;SDS011;67216;50.930;4.514;2023-02-10T09:29:00;68.65;;;44.45;;
55987;SDS011;67216;50.930;4.514;2023-02-10T09:31:30;74.55;;;46.80;;
55987;SDS011;67216;50.930;4.514;2023-02-10T09:33:58;70.57;;;46.20;;
55987;SDS011;67216;50.930;4.514;2023-02-10T09:36:24;75.15;;;47.10;;
55987;SDS011;67216;50.930;4.514;2023-02-10T09:38:50;76.70;;;46.83;;
55987;SDS011;67216;50.930;4.514;2023-02-10T09:42:03;82.43;;;49.08;;
55987;SDS011;67216;50.930;4.514;2023-02-10T09:52:07;90.28;;;50.92;;
55987;SDS011;67216;50.930;4.514;2023-02-10T09:54:55;89.72;;;49.55;;
55987;SDS011;67216;50.930;4.514;2023-02-10T09:57:22;90.07;;;49.17;;
55987;SDS011;67216;50.930;4.514;2023-02-10T10:00:08;98.20;;;54.15;;
55987;SDS011;67216;50.930;4.514;2023-02-10T10:02:54;103.93;;;54.85;;
55987;SDS011;67216;50.930;4.514;2023-02-10T10:05:45;100.38;;;55.05;;
55987;SDS011;67216;50.930;4.514;2023-02-10T10:17:02;113.10;;;57.97;;
55987;SDS011;67216;50.930;4.514;2023-02-10T10:25:31;124.00;;;60.28;;
55987;SDS011;67216;50.930;4.514;2023-02-10T10:31:16;122.60;;;61.75;;
55987;SDS011;67216;50.930;4.514;2023-02-10T10:33:44;121.30;;;62.17;;
55987;SDS011;67216;50.930;4.514;2023-02-10T10:36:18;121.72;;;60.70;;
55987;SDS011;67216;50.930;4.514;2023-02-10T10:39:13;118.25;;;60.47;;
55987;SDS011;67216;50.930;4.514;2023-02-10T10:41:46;120.05;;;60.80;;
55987;SDS011;67216;50.930;4.514;2023-02-10T10:44:15;119.35;;;60.80;;
55987;SDS011;67216;50.930;4.514;2023-02-10T10:46:47;112.38;;;57.90;;
55987;SDS011;67216;50.930;4.514;2023-02-10T10:49:15;118.55;;;60.95;;
55987;SDS011;67216;50.930;4.514;2023-02-10T10:51:41;118.32;;;58.08;;
55987;SDS011;67216;50.930;4.514;2023-02-10T10:54:12;114.28;;;56.38;;
55987;SDS011;67216;50.930;4.514;2023-02-10T10:56:49;105.70;;;55.67;;
55987;SDS011;67216;50.930;4.514;2023-02-10T11:02:15;109.40;;;55.17;;
55987;SDS011;67216;50.930;4.514;2023-02-10T11:04:43;99.78;;;53.55;;
55987;SDS011;67216;50.930;4.514;2023-02-10T11:07:10;107.97;;;52.90;;
55987;SDS011;67216;50.930;4.514;2023-02-10T11:09:47;99.40;;;53.53;;
55987;SDS011;67216;50.930;4.514;2023-02-10T11:12:26;90.85;;;48.90;;
55987;SDS011;67216;50.930;4.514;2023-02-10T11:14:59;86.03;;;48.03;;
55987;SDS011;67216;50.930;4.514;2023-02-10T11:19:58;98.30;;;54.85;;
55987;SDS011;67216;50.930;4.514;2023-02-10T11:22:45;95.03;;;51.63;;
55987;SDS011;67216;50.930;4.514;2023-02-10T11:27:58;101.22;;;53.38;;
55987;SDS011;67216;50.930;4.514;2023-02-10T11:32:56;98.38;;;52.95;;
55987;SDS011;67216;50.930;4.514;2023-02-10T11:35:22;97.88;;;51.67;;
55987;SDS011;67216;50.930;4.514;2023-02-10T11:37:56;103.50;;;51.15;;
55987;SDS011;67216;50.930;4.514;2023-02-10T11:40:28;107.70;;;53.47;;
55987;SDS011;67216;50.930;4.514;2023-02-10T11:42:57;91.15;;;49.65;;
55987;SDS011;67216;50.930;4.514;2023-02-10T11:45:27;91.10;;;46.35;;
55987;SDS011;67216;50.930;4.514;2023-02-10T11:48:03;75.57;;;41.60;;
55987;SDS011;67216;50.930;4.514;2023-02-10T11:50:41;72.10;;;37.00;;
55987;SDS011;67216;50.930;4.514;2023-02-10T11:53:19;69.93;;;36.42;;
55987;SDS011;67216;50.930;4.514;2023-02-10T11:58:50;70.40;;;37.03;;
55987;SDS011;67216;50.930;4.514;2023-02-10T12:04:10;71.85;;;37.45;;
55987;SDS011;67216;50.930;4.514;2023-02-10T12:06:49;75.47;;;37.65;;
55987;SDS011;67216;50.930;4.514;2023-02-10T12:12:08;69.88;;;35.83;;
55987;SDS011;67216;50.930;4.514;2023-02-10T12:14:53;64.05;;;35.47;;
55987;SDS011;67216;50.930;4.514;2023-02-10T12:17:28;69.00;;;37.47;;
55987;SDS011;67216;50.930;4.514;2023-02-10T12:31:10;74.03;;;37.03;;
55987;SDS011;67216;50.930;4.514;2023-02-10T12:48:00;62.03;;;33.53;;
55987;SDS011;67216;50.930;4.514;2023-02-10T12:53:43;69.28;;;36.53;;
55987;SDS011;67216;50.930;4.514;2023-02-10T12:59:04;65.13;;;36.08;;
55987;SDS011;67216;50.930;4.514;2023-02-10T13:02:03;58.83;;;34.60;;
55987;SDS011;67216;50.930;4.514;2023-02-10T13:04:38;68.13;;;36.35;;
55987;SDS011;67216;50.930;4.514;2023-02-10T13:13:46;70.38;;;36.33;;
55987;SDS011;67216;50.930;4.514;2023-02-10T13:16:08;61.03;;;35.83;;
55987;SDS011;67216;50.930;4.514;2023-02-10T13:18:36;61.03;;;36.60;;
55987;SDS011;67216;50.930;4.514;2023-02-10T13:21:35;56.38;;;34.25;;
55987;SDS011;67216;50.930;4.514;2023-02-10T13:24:16;59.20;;;34.38;;
55987;SDS011;67216;50.930;4.514;2023-02-10T13:29:24;62.85;;;35.83;;
55987;SDS011;67216;50.930;4.514;2023-02-10T13:34:50;67.57;;;37.53;;
55987;SDS011;67216;50.930;4.514;2023-02-10T13:37:22;68.13;;;38.65;;
55987;SDS011;67216;50.930;4.514;2023-02-10T13:40:13;71.13;;;38.70;;
55987;SDS011;67216;50.930;4.514;2023-02-10T13:42:48;69.40;;;37.88;;
55987;SDS011;67216;50.930;4.514;2023-02-10T13:45:26;65.97;;;34.70;;
55987;SDS011;67216;50.930;4.514;2023-02-10T13:47:54;65.13;;;36.08;;
55987;SDS011;67216;50.930;4.514;2023-02-10T13:50:41;71.00;;;36.55;;
55987;SDS011;67216;50.930;4.514;2023-02-10T13:53:30;71.13;;;36.05;;
55987;SDS011;67216;50.930;4.514;2023-02-10T14:06:43;71.18;;;36.38;;
55987;SDS011;67216;50.930;4.514;2023-02-10T14:11:56;75.80;;;38.25;;
55987;SDS011;67216;50.930;4.514;2023-02-10T14:14:27;78.78;;;37.60;;
55987;SDS011;67216;50.930;4.514;2023-02-10T14:19:37;72.57;;;36.88;;
55987;SDS011;67216;50.930;4.514;2023-02-10T14:24:50;73.05;;;36.38;;
55987;SDS011;67216;50.930;4.514;2023-02-10T14:27:20;72.80;;;35.33;;
55987;SDS011;67216;50.930;4.514;2023-02-10T14:29:50;76.00;;;37.33;;
55987;SDS011;67216;50.930;4.514;2023-02-10T14:32:28;71.95;;;37.33;;
55987;SDS011;67216;50.930;4.514;2023-02-10T14:34:59;78.18;;;38.58;;
55987;SDS011;67216;50.930;4.514;2023-02-10T14:37:27;77.50;;;38.22;;
55987;SDS011;67216;50.930;4.514;2023-02-10T14:39:56;76.80;;;37.97;;
55987;SDS011;67216;50.930;4.514;2023-02-10T14:42:27;68.43;;;35.63;;
55987;SDS011;67216;50.930;4.514;2023-02-10T14:45:00;71.53;;;35.60;;
55987;SDS011;67216;50.930;4.514;2023-02-10T14:49:57;72.95;;;35.88;;
55987;SDS011;67216;50.930;4.514;2023-02-10T14:52:26;73.95;;;37.17;;
55987;SDS011;67216;50.930;4.514;2023-02-10T14:54:57;77.05;;;38.63;;
55987;SDS011;67216;50.930;4.514;2023-02-10T14:57:25;79.13;;;37.90;;
55987;SDS011;67216;50.930;4.514;2023-02-10T14:59:56;75.88;;;39.58;;
55987;SDS011;67216;50.930;4.514;2023-02-10T15:02:26;78.45;;;39.75;;
55987;SDS011;67216;50.930;4.514;2023-02-10T15:04:57;78.22;;;39.80;;
55987;SDS011;67216;50.930;4.514;2023-02-10T15:07:27;74.90;;;39.50;;
55987;SDS011;67216;50.930;4.514;2023-02-10T15:10:00;74.40;;;39.13;;
55987;SDS011;67216;50.930;4.514;2023-02-10T15:12:38;78.07;;;40.17;;
55987;SDS011;67216;50.930;4.514;2023-02-10T15:17:48;83.90;;;40.33;;
55987;SDS011;67216;50.930;4.514;2023-02-10T15:20:21;82.45;;;40.00;;
55987;SDS011;67216;50.930;4.514;2023-02-10T15:23:03;88.80;;;39.83;;
55987;SDS011;67216;50.930;4.514;2023-02-10T15:25:34;79.13;;;40.72;;
55987;SDS011;67216;50.930;4.514;2023-02-10T15:33:27;77.55;;;38.83;;
55987;SDS011;67216;50.930;4.514;2023-02-10T15:41:38;82.75;;;41.83;;
55987;SDS011;67216;50.930;4.514;2023-02-10T15:49:56;84.82;;;40.40;;
55987;SDS011;67216;50.930;4.514;2023-02-10T15:52:25;75.88;;;38.60;;
55987;SDS011;67216;50.930;4.514;2023-02-10T15:55:02;80.55;;;38.83;;
55987;SDS011;67216;50.930;4.514;2023-02-10T15:57:34;75.32;;;38.03;;
55987;SDS011;67216;50.930;4.514;2023-02-10T16:00:00;81.72;;;39.60;;
55987;SDS011;67216;50.930;4.514;2023-02-10T16:02:28;78.72;;;39.30;;
55987;SDS011;67216;50.930;4.514;2023-02-10T16:04:55;79.82;;;38.90;;
55987;SDS011;67216;50.930;4.514;2023-02-10T16:07:24;84.30;;;41.45;;
55987;SDS011;67216;50.930;4.514;2023-02-10T16:09:52;83.97;;;40.15;;
55987;SDS011;67216;50.930;4.514;2023-02-10T16:12:19;78.85;;;38.85;;
55987;SDS011;67216;50.930;4.514;2023-02-10T16:14:45;78.88;;;38.90;;
55987;SDS011;67216;50.930;4.514;2023-02-10T16:17:15;81.13;;;39.47;;
55987;SDS011;67216;50.930;4.514;2023-02-10T16:19:45;78.95;;;39.00;;
55987;SDS011;67216;50.930;4.514;2023-02-10T16:22:12;87.40;;;42.03;;
55987;SDS011;67216;50.930;4.514;2023-02-10T16:24:38;83.10;;;42.15;;
55987;SDS011;67216;50.930;4.514;2023-02-10T16:27:06;83.13;;;40.45;;
55987;SDS011;67216;50.930;4.514;2023-02-10T16:29:32;91.70;;;42.65;;
55987;SDS011;67216;50.930;4.514;2023-02-10T16:31:58;82.40;;;41.40;;
55987;SDS011;67216;50.930;4.514;2023-02-10T16:34:27;84.07;;;40.70;;
55987;SDS011;67216;50.930;4.514;2023-02-10T16:36:56;86.25;;;42.72;;
55987;SDS011;67216;50.930;4.514;2023-02-10T16:39:23;89.07;;;42.33;;
55987;SDS011;67216;50.930;4.514;2023-02-10T16:41:50;88.22;;;42.97;;
55987;SDS011;67216;50.930;4.514;2023-02-10T16:44:19;93.47;;;44.20;;
55987;SDS011;67216;50.930;4.514;2023-02-10T16:46:48;101.72;;;45.60;;
55987;SDS011;67216;50.930;4.514;2023-02-10T16:49:15;93.22;;;45.10;;
55987;SDS011;67216;50.930;4.514;2023-02-10T16:51:43;98.00;;;44.78;;
55987;SDS011;67216;50.930;4.514;2023-02-10T16:54:08;95.60;;;46.45;;
55987;SDS011;67216;50.930;4.514;2023-02-10T16:56:35;96.88;;;46.20;;
55987;SDS011;67216;50.930;4.514;2023-02-10T16:59:05;95.55;;;47.20;;
55987;SDS011;67216;50.930;4.514;2023-02-10T17:01:32;100.68;;;48.28;;
55987;SDS011;67216;50.930;4.514;2023-02-10T17:03:58;94.78;;;48.90;;
55987;SDS011;67216;50.930;4.514;2023-02-10T17:06:26;98.10;;;48.33;;
55987;SDS011;67216;50.930;4.514;2023-02-10T17:08:52;99.15;;;48.95;;